sensor_id;sensor_type;location;lat;lon;timestamp;pressure;altitude;pressure_sealevel;temperature;humidity
71772;BME280;59606;52.138;5.424;2022-12-31T00:01:24;100370.53;;;11.49;100.00
71772;BME280;59606;52.138;5.424;2022-12-31T00:03:51;100377.34;;;11.52;100.00
71772;BME280;59606;52.138;5.424;2022-12-31T00:06:30;100377.22;;;11.53;100.00
71772;BME280;59606;52.138;5.424;2022-12-31T00:08:59;100379.81;;;11.53;100.00
71772;BME280;59606;52.138;5.424;2022-12-31T00:11:28;100366.78;;;11.53;100.00
71772;BME280;59606;52.138;5.424;2022-12-31T00:13:55;100364.16;;;11.53;100.00
71772;BME280;59606;52.138;5.424;2022-12-31T00:16:25;100369.38;;;11.53;100.00
71772;BME280;59606;52.138;5.424;2022-12-31T00:18:56;100373.69;;;11.54;100.00
71772;BME280;59606;52.138;5.424;2022-12-31T00:21:26;100381.41;;;11.56;100.00
71772;BME280;59606;52.138;5.424;2022-12-31T00:23:52;100391.00;;;11.55;100.00
71772;BME280;59606;52.138;5.424;2022-12-31T00:26:21;100397.06;;;11.56;100.00
71772;BME280;59606;52.138;5.424;2022-12-31T00:28:51;100388.41;;;11.55;100.00
71772;BME280;59606;52.138;5.424;2022-12-31T00:31:20;100389.22;;;11.56;100.00
71772;BME280;59606;52.138;5.424;2022-12-31T00:33:47;100389.97;;;11.58;100.00
71772;BME280;59606;52.138;5.424;2022-12-31T00:38:46;100393.53;;;11.57;100.00
71772;BME280;59606;52.138;5.424;2022-12-31T00:41:14;100391.84;;;11.56;100.00
71772;BME280;59606;52.138;5.424;2022-12-31T00:43:41;100385.78;;;11.55;100.00
71772;BME280;59606;52.138;5.424;2022-12-31T00:46:09;100398.84;;;11.55;100.00
71772;BME280;59606;52.138;5.424;2022-12-31T00:48:37;100396.16;;;11.57;100.00
71772;BME280;59606;52.138;5.424;2022-12-31T00:51:05;100395.28;;;11.56;100.00
71772;BME280;59606;52.138;5.424;2022-12-31T00:53:32;100400.63;;;11.55;100.00
71772;BME280;59606;52.138;5.424;2022-12-31T00:56:03;100393.72;;;11.54;100.00
71772;BME280;59606;52.138;5.424;2022-12-31T00:58:32;100397.19;;;11.54;100.00
71772;BME280;59606;52.138;5.424;2022-12-31T01:03:35;100393.72;;;11.54;100.00
71772;BME280;59606;52.138;5.424;2022-12-31T01:06:03;100395.59;;;11.52;100.00
71772;BME280;59606;52.138;5.424;2022-12-31T01:08:29;100389.63;;;11.50;100.00
71772;BME280;59606;52.138;5.424;2022-12-31T01:10:56;100391.53;;;11.48;100.00
71772;BME280;59606;52.138;5.424;2022-12-31T01:13:41;100391.72;;;11.45;100.00
71772;BME280;59606;52.138;5.424;2022-12-31T01:16:09;100396.09;;;11.44;100.00
71772;BME280;59606;52.138;5.424;2022-12-31T01:18:36;100395.34;;;11.42;100.00
71772;BME280;59606;52.138;5.424;2022-12-31T01:21:06;100392.75;;;11.42;100.00
71772;BME280;59606;52.138;5.424;2022-12-31T01:23:33;100395.47;;;11.41;100.00
71772;BME280;59606;52.138;5.424;2022-12-31T01:26:01;100394.66;;;11.40;100.00
71772;BME280;59606;52.138;5.424;2022-12-31T01:28:28;100388.69;;;11.38;100.00
71772;BME280;59606;52.138;5.424;2022-12-31T01:30:55;100393.91;;;11.38;100.00
71772;BME280;59606;52.138;5.424;2022-12-31T01:33:22;100399.19;;;11.37;100.00
71772;BME280;59606;52.138;5.424;2022-12-31T01:35:49;100390.53;;;11.36;100.00
71772;BME280;59606;52.138;5.424;2022-12-31T01:38:15;100392.44;;;11.34;100.00
71772;BME280;59606;52.138;5.424;2022-12-31T01:40:42;100398.47;;;11.35;100.00
71772;BME280;59606;52.138;5.424;2022-12-31T01:43:18;100397.72;;;11.32;100.00
71772;BME280;59606;52.138;5.424;2022-12-31T01:45:48;100396.91;;;11.32;100.00
71772;BME280;59606;52.138;5.424;2022-12-31T01:48:20;100401.28;;;11.31;100.00
71772;BME280;59606;52.138;5.424;2022-12-31T01:50:48;100394.41;;;11.30;100.00
71772;BME280;59606;52.138;5.424;2022-12-31T01:53:15;100397.09;;;11.29;100.00
71772;BME280;59606;52.138;5.424;2022-12-31T01:55:54;100399.81;;;11.27;100.00
71772;BME280;59606;52.138;5.424;2022-12-31T01:58:35;100407.63;;;11.27;100.00
71772;BME280;59606;52.138;5.424;2022-12-31T02:01:02;100413.75;;;11.26;100.00
71772;BME280;59606;52.138;5.424;2022-12-31T02:03:28;100413.75;;;11.26;100.00
71772;BME280;59606;52.138;5.424;2022-12-31T02:06:19;100424.19;;;11.26;100.00
71772;BME280;59606;52.138;5.424;2022-12-31T02:08:47;100416.50;;;11.25;100.00
71772;BME280;59606;52.138;5.424;2022-12-31T02:11:26;100412.09;;;11.25;100.00
71772;BME280;59606;52.138;5.424;2022-12-31T02:13:55;100400.00;;;11.24;100.00
71772;BME280;59606;52.138;5.424;2022-12-31T02:16:43;100387.81;;;11.25;100.00
71772;BME280;59606;52.138;5.424;2022-12-31T02:28:12;100393.31;;;11.20;100.00
71772;BME280;59606;52.138;5.424;2022-12-31T02:30:41;100381.22;;;11.19;100.00
71772;BME280;59606;52.138;5.424;2022-12-31T02:33:24;100363.91;;;11.18;100.00
71772;BME280;59606;52.138;5.424;2022-12-31T02:35:57;100355.25;;;11.18;100.00
71772;BME280;59606;52.138;5.424;2022-12-31T02:38:27;100357.84;;;11.18;100.00
71772;BME280;59606;52.138;5.424;2022-12-31T02:40:58;100363.06;;;11.18;100.00
71772;BME280;59606;52.138;5.424;2022-12-31T02:43:25;100363.16;;;11.16;100.00
71772;BME280;59606;52.138;5.424;2022-12-31T02:46:12;100356.28;;;11.15;100.00
71772;BME280;59606;52.138;5.424;2022-12-31T02:48:52;100359.06;;;11.12;100.00
71772;BME280;59606;52.138;5.424;2022-12-31T02:51:36;100379.94;;;11.12;100.00
71772;BME280;59606;52.138;5.424;2022-12-31T02:54:16;100388.69;;;11.11;100.00
71772;BME280;59606;52.138;5.424;2022-12-31T02:57:02;100397.47;;;11.10;100.00
71772;BME280;59606;52.138;5.424;2022-12-31T02:59:44;100410.59;;;11.08;100.00
71772;BME280;59606;52.138;5.424;2022-12-31T03:02:32;100414.97;;;11.08;100.00
71772;BME280;59606;52.138;5.424;2022-12-31T03:05:01;100409.81;;;11.06;100.00
71772;BME280;59606;52.138;5.424;2022-12-31T03:07:30;100421.13;;;11.07;100.00
71772;BME280;59606;52.138;5.424;2022-12-31T03:09:59;100432.47;;;11.06;100.00
71772;BME280;59606;52.138;5.424;2022-12-31T03:12:29;100436.00;;;11.05;100.00
71772;BME280;59606;52.138;5.424;2022-12-31T03:20:13;100411.91;;;11.01;100.00
71772;BME280;59606;52.138;5.424;2022-12-31T03:22:58;100422.53;;;10.98;100.00
71772;BME280;59606;52.138;5.424;2022-12-31T03:25:25;100418.97;;;10.99;100.00
71772;BME280;59606;52.138;5.424;2022-12-31T03:28:10;100423.47;;;10.97;100.00
71772;BME280;59606;52.138;5.424;2022-12-31T03:30:39;100433.97;;;10.96;100.00
71772;BME280;59606;52.138;5.424;2022-12-31T03:33:07;100432.31;;;10.95;100.00
71772;BME280;59606;52.138;5.424;2022-12-31T03:35:34;100426.34;;;10.93;100.00
71772;BME280;59606;52.138;5.424;2022-12-31T03:38:02;100430.72;;;10.92;100.00
71772;BME280;59606;52.138;5.424;2022-12-31T03:40:31;100433.44;;;10.91;100.00
71772;BME280;59606;52.138;5.424;2022-12-31T03:42:59;100425.69;;;10.89;100.00
71772;BME280;59606;52.138;5.424;2022-12-31T03:45:26;100425.81;;;10.88;100.00
71772;BME280;59606;52.138;5.424;2022-12-31T03:47:52;100419.78;;;10.87;100.00
71772;BME280;59606;52.138;5.424;2022-12-31T03:50:19;100408.69;;;10.83;100.00
71772;BME280;59606;52.138;5.424;2022-12-31T03:52:46;100413.91;;;10.83;100.00
71772;BME280;59606;52.138;5.424;2022-12-31T03:55:13;100411.38;;;10.82;100.00
71772;BME280;59606;52.138;5.424;2022-12-31T03:57:39;100416.72;;;10.80;100.00
71772;BME280;59606;52.138;5.424;2022-12-31T04:00:09;100417.63;;;10.79;100.00
71772;BME280;59606;52.138;5.424;2022-12-31T04:02:35;100415.97;;;10.78;100.00
71772;BME280;59606;52.138;5.424;2022-12-31T04:05:03;100414.38;;;10.76;100.00
71772;BME280;59606;52.138;5.424;2022-12-31T04:07:29;100404.88;;;10.75;100.00
71772;BME280;59606;52.138;5.424;2022-12-31T04:09:56;100414.56;;;10.73;100.00
71772;BME280;59606;52.138;5.424;2022-12-31T04:12:23;100402.59;;;10.70;100.00
71772;BME280;59606;52.138;5.424;2022-12-31T04:14:50;100403.41;;;10.71;100.00
71772;BME280;59606;52.138;5.424;2022-12-31T04:17:16;100396.44;;;10.71;100.00
71772;BME280;59606;52.138;5.424;2022-12-31T04:19:42;100393.94;;;10.70;100.00
71772;BME280;59606;52.138;5.424;2022-12-31T04:22:09;100388.81;;;10.68;100.00
71772;BME280;59606;52.138;5.424;2022-12-31T04:24:35;100379.31;;;10.67;100.00
71772;BME280;59606;52.138;5.424;2022-12-31T04:27:02;100377.56;;;10.68;100.00
71772;BME280;59606;52.138;5.424;2022-12-31T04:29:33;100373.28;;;10.67;100.00
71772;BME280;59606;52.138;5.424;2022-12-31T04:32:00;100374.19;;;10.66;100.00
71772;BME280;59606;52.138;5.424;2022-12-31T04:34:27;100382.94;;;10.65;100.00
71772;BME280;59606;52.138;5.424;2022-12-31T04:36:53;100396.09;;;10.63;100.00
71772;BME280;59606;52.138;5.424;2022-12-31T04:39:20;100396.91;;;10.64;100.00
71772;BME280;59606;52.138;5.424;2022-12-31T04:41:47;100402.97;;;10.64;100.00
71772;BME280;59606;52.138;5.424;2022-12-31T04:44:13;100394.31;;;10.64;100.00
71772;BME280;59606;52.138;5.424;2022-12-31T04:46:40;100396.09;;;10.63;100.00
71772;BME280;59606;52.138;5.424;2022-12-31T04:49:07;100392.72;;;10.61;100.00
71772;BME280;59606;52.138;5.424;2022-12-31T04:51:34;100406.59;;;10.61;100.00
71772;BME280;59606;52.138;5.424;2022-12-31T04:54:00;100402.31;;;10.60;100.00
71772;BME280;59606;52.138;5.424;2022-12-31T04:56:27;100388.53;;;10.58;100.00
71772;BME280;59606;52.138;5.424;2022-12-31T04:58:54;100398.97;;;10.58;100.00
71772;BME280;59606;52.138;5.424;2022-12-31T05:01:21;100398.03;;;10.59;100.00
71772;BME280;59606;52.138;5.424;2022-12-31T05:03:48;100405.84;;;10.59;100.00
71772;BME280;59606;52.138;5.424;2022-12-31T05:06:20;100379.69;;;10.61;100.00
71772;BME280;59606;52.138;5.424;2022-12-31T05:08:48;100393.56;;;10.61;100.00
71772;BME280;59606;52.138;5.424;2022-12-31T05:11:15;100410.13;;;10.60;100.00
71772;BME280;59606;52.138;5.424;2022-12-31T05:13:42;100411.78;;;10.61;100.00
71772;BME280;59606;52.138;5.424;2022-12-31T05:16:09;100391.78;;;10.62;100.00
71772;BME280;59606;52.138;5.424;2022-12-31T05:18:36;100397.81;;;10.62;100.00
71772;BME280;59606;52.138;5.424;2022-12-31T05:21:03;100398.78;;;10.61;100.00
71772;BME280;59606;52.138;5.424;2022-12-31T05:23:29;100403.91;;;10.63;100.00
71772;BME280;59606;52.138;5.424;2022-12-31T05:25:56;100395.16;;;10.64;100.00
71772;BME280;59606;52.138;5.424;2022-12-31T05:28:24;100402.03;;;10.65;100.00
71772;BME280;59606;52.138;5.424;2022-12-31T05:30:51;100408.16;;;10.64;100.00
71772;BME280;59606;52.138;5.424;2022-12-31T05:33:17;100409.84;;;10.65;100.00
71772;BME280;59606;52.138;5.424;2022-12-31T05:35:44;100417.56;;;10.67;100.00
71772;BME280;59606;52.138;5.424;2022-12-31T05:38:11;100418.28;;;10.69;100.00
71772;BME280;59606;52.138;5.424;2022-12-31T05:40:38;100420.81;;;10.70;100.00
71772;BME280;59606;52.138;5.424;2022-12-31T05:43:04;100420.72;;;10.72;100.00
71772;BME280;59606;52.138;5.424;2022-12-31T05:45:31;100418.84;;;10.74;100.00
71772;BME280;59606;52.138;5.424;2022-12-31T05:47:57;100413.53;;;10.75;100.00
71772;BME280;59606;52.138;5.424;2022-12-31T05:50:24;100411.69;;;10.77;100.00
71772;BME280;59606;52.138;5.424;2022-12-31T05:52:50;100401.91;;;10.81;100.00
71772;BME280;59606;52.138;5.424;2022-12-31T05:55:17;100392.88;;;10.87;100.00
71772;BME280;59606;52.138;5.424;2022-12-31T05:57:44;100407.56;;;10.88;100.00
71772;BME280;59606;52.138;5.424;2022-12-31T06:00:10;100414.44;;;10.89;100.00
71772;BME280;59606;52.138;5.424;2022-12-31T06:02:37;100415.09;;;10.92;100.00
71772;BME280;59606;52.138;5.424;2022-12-31T06:05:04;100396.75;;;10.94;100.00
71772;BME280;59606;52.138;5.424;2022-12-31T06:07:30;100407.91;;;10.96;100.00
71772;BME280;59606;52.138;5.424;2022-12-31T06:09:57;100398.13;;;10.99;100.00
71772;BME280;59606;52.138;5.424;2022-12-31T06:12:24;100405.88;;;11.01;100.00
71772;BME280;59606;52.138;5.424;2022-12-31T06:14:50;100410.97;;;11.02;100.00
71772;BME280;59606;52.138;5.424;2022-12-31T06:17:17;100410.78;;;11.05;100.00
71772;BME280;59606;52.138;5.424;2022-12-31T06:19:45;100406.38;;;11.06;100.00
71772;BME280;59606;52.138;5.424;2022-12-31T06:22:12;100412.44;;;11.06;100.00
71772;BME280;59606;52.138;5.424;2022-12-31T06:24:38;100411.41;;;11.09;100.00
71772;BME280;59606;52.138;5.424;2022-12-31T06:27:05;100413.19;;;11.08;100.00
71772;BME280;59606;52.138;5.424;2022-12-31T06:29:32;100407.03;;;11.09;100.00
71772;BME280;59606;52.138;5.424;2022-12-31T06:31:59;100413.00;;;11.12;100.00
71772;BME280;59606;52.138;5.424;2022-12-31T06:34:25;100416.34;;;11.14;100.00
71772;BME280;59606;52.138;5.424;2022-12-31T06:36:52;100425.00;;;11.14;100.00
71772;BME280;59606;52.138;5.424;2022-12-31T06:39:18;100428.34;;;11.16;100.00
71772;BME280;59606;52.138;5.424;2022-12-31T06:41:45;100429.84;;;11.20;100.00
71772;BME280;59606;52.138;5.424;2022-12-31T06:44:11;100435.75;;;11.22;100.00
71772;BME280;59606;52.138;5.424;2022-12-31T06:46:38;100439.97;;;11.25;100.00
71772;BME280;59606;52.138;5.424;2022-12-31T06:49:04;100435.38;;;11.28;100.00
71772;BME280;59606;52.138;5.424;2022-12-31T06:51:31;100433.53;;;11.30;100.00
71772;BME280;59606;52.138;5.424;2022-12-31T06:53:57;100435.94;;;11.33;100.00
71772;BME280;59606;52.138;5.424;2022-12-31T06:56:26;100435.63;;;11.38;100.00
71772;BME280;59606;52.138;5.424;2022-12-31T06:59:00;100447.53;;;11.42;100.00
71772;BME280;59606;52.138;5.424;2022-12-31T07:06:55;100427.44;;;11.57;100.00
71772;BME280;59606;52.138;5.424;2022-12-31T07:15:42;100421.75;;;11.77;100.00
71772;BME280;59606;52.138;5.424;2022-12-31T07:18:39;100410.00;;;11.85;100.00
71772;BME280;59606;52.138;5.424;2022-12-31T07:21:15;100413.84;;;11.92;100.00
71772;BME280;59606;52.138;5.424;2022-12-31T07:23:43;100414.47;;;11.95;100.00
71772;BME280;59606;52.138;5.424;2022-12-31T07:26:31;100427.97;;;12.02;100.00
71772;BME280;59606;52.138;5.424;2022-12-31T07:37:08;100422.53;;;12.18;100.00
71772;BME280;59606;52.138;5.424;2022-12-31T07:39:57;100441.31;;;12.23;100.00
71772;BME280;59606;52.138;5.424;2022-12-31T07:47:38;100440.50;;;12.35;100.00
71772;BME280;59606;52.138;5.424;2022-12-31T07:50:05;100448.13;;;12.38;100.00
71772;BME280;59606;52.138;5.424;2022-12-31T07:52:32;100455.56;;;12.44;100.00
71772;BME280;59606;52.138;5.424;2022-12-31T07:54:58;100444.16;;;12.45;100.00
71772;BME280;59606;52.138;5.424;2022-12-31T07:57:31;100463.19;;;12.47;100.00
71772;BME280;59606;52.138;5.424;2022-12-31T08:00:10;100457.00;;;12.48;100.00
71772;BME280;59606;52.138;5.424;2022-12-31T08:03:04;100472.69;;;12.48;100.00
71772;BME280;59606;52.138;5.424;2022-12-31T08:09:33;100456.78;;;12.52;100.00
71772;BME280;59606;52.138;5.424;2022-12-31T08:12:02;100469.13;;;12.49;100.00
71772;BME280;59606;52.138;5.424;2022-12-31T08:14:29;100453.34;;;12.51;100.00
71772;BME280;59606;52.138;5.424;2022-12-31T08:16:57;100450.53;;;12.54;100.00
71772;BME280;59606;52.138;5.424;2022-12-31T08:19:28;100460.97;;;12.54;100.00
71772;BME280;59606;52.138;5.424;2022-12-31T08:27:41;100468.16;;;12.50;100.00
71772;BME280;59606;52.138;5.424;2022-12-31T08:30:13;100466.63;;;12.48;100.00
71772;BME280;59606;52.138;5.424;2022-12-31T08:40:57;100507.47;;;12.49;100.00
71772;BME280;59606;52.138;5.424;2022-12-31T08:46:01;100514.56;;;12.47;100.00
71772;BME280;59606;52.138;5.424;2022-12-31T08:48:42;100531.13;;;12.47;100.00
71772;BME280;59606;52.138;5.424;2022-12-31T08:51:14;100536.34;;;12.47;100.00
71772;BME280;59606;52.138;5.424;2022-12-31T08:53:42;100549.50;;;12.46;100.00
71772;BME280;59606;52.138;5.424;2022-12-31T09:01:55;100588.06;;;12.42;100.00
71772;BME280;59606;52.138;5.424;2022-12-31T09:07:05;100571.63;;;12.40;100.00
71772;BME280;59606;52.138;5.424;2022-12-31T09:19:56;100589.63;;;12.45;100.00
71772;BME280;59606;52.138;5.424;2022-12-31T09:22:23;100580.66;;;12.49;100.00
71772;BME280;59606;52.138;5.424;2022-12-31T09:24:50;100597.78;;;12.53;100.00
71772;BME280;59606;52.138;5.424;2022-12-31T09:30:00;100605.22;;;12.59;100.00
71772;BME280;59606;52.138;5.424;2022-12-31T09:32:32;100583.91;;;12.65;100.00
71772;BME280;59606;52.138;5.424;2022-12-31T09:35:33;100576.06;;;12.65;100.00
71772;BME280;59606;52.138;5.424;2022-12-31T09:38:21;100578.47;;;12.68;100.00
71772;BME280;59606;52.138;5.424;2022-12-31T09:41:15;100593.13;;;12.71;100.00
71772;BME280;59606;52.138;5.424;2022-12-31T09:57:38;100611.41;;;12.96;100.00
71772;BME280;59606;52.138;5.424;2022-12-31T10:00:20;100596.53;;;12.97;100.00
71772;BME280;59606;52.138;5.424;2022-12-31T10:02:59;100602.53;;;12.99;100.00
71772;BME280;59606;52.138;5.424;2022-12-31T10:11:09;100603.56;;;13.09;100.00
71772;BME280;59606;52.138;5.424;2022-12-31T10:17:33;100594.97;;;13.20;100.00
71772;BME280;59606;52.138;5.424;2022-12-31T10:19:42;100584.22;;;13.25;100.00
71772;BME280;59606;52.138;5.424;2022-12-31T10:31:49;100602.59;;;13.49;100.00
71772;BME280;59606;52.138;5.424;2022-12-31T10:34:26;100621.53;;;13.52;100.00
71772;BME280;59606;52.138;5.424;2022-12-31T10:37:18;100609.88;;;13.56;100.00
71772;BME280;59606;52.138;5.424;2022-12-31T10:40:06;100616.56;;;13.60;100.00
71772;BME280;59606;52.138;5.424;2022-12-31T10:43:29;100620.84;;;13.61;100.00
71772;BME280;59606;52.138;5.424;2022-12-31T10:54:56;100610.91;;;13.66;100.00
71772;BME280;59606;52.138;5.424;2022-12-31T11:00:22;100615.53;;;13.63;100.00
71772;BME280;59606;52.138;5.424;2022-12-31T11:25:20;100617.94;;;13.66;100.00
71772;BME280;59606;52.138;5.424;2022-12-31T11:30:53;100607.75;;;13.61;100.00
71772;BME280;59606;52.138;5.424;2022-12-31T11:50:48;100628.69;;;13.61;100.00
71772;BME280;59606;52.138;5.424;2022-12-31T11:56:16;100617.59;;;13.71;100.00
71772;BME280;59606;52.138;5.424;2022-12-31T11:58:49;100615.38;;;13.77;100.00
71772;BME280;59606;52.138;5.424;2022-12-31T12:01:40;100607.19;;;13.82;100.00
71772;BME280;59606;52.138;5.424;2022-12-31T12:04:09;100606.03;;;13.86;100.00
71772;BME280;59606;52.138;5.424;2022-12-31T12:06:36;100623.06;;;13.91;100.00
71772;BME280;59606;52.138;5.424;2022-12-31T12:09:06;100609.66;;;13.96;100.00
71772;BME280;59606;52.138;5.424;2022-12-31T12:11:39;100590.25;;;13.99;100.00
71772;BME280;59606;52.138;5.424;2022-12-31T12:14:41;100618.13;;;14.00;100.00
71772;BME280;59606;52.138;5.424;2022-12-31T12:17:11;100591.69;;;14.03;100.00
71772;BME280;59606;52.138;5.424;2022-12-31T12:19:46;100592.53;;;14.03;100.00
71772;BME280;59606;52.138;5.424;2022-12-31T12:22:20;100588.25;;;14.02;100.00
71772;BME280;59606;52.138;5.424;2022-12-31T12:24:56;100594.41;;;14.01;100.00
71772;BME280;59606;52.138;5.424;2022-12-31T12:27:27;100591.91;;;14.00;100.00
71772;BME280;59606;52.138;5.424;2022-12-31T12:29:54;100604.41;;;13.96;100.00
71772;BME280;59606;52.138;5.424;2022-12-31T12:32:24;100584.41;;;13.95;100.00
71772;BME280;59606;52.138;5.424;2022-12-31T12:34:51;100599.03;;;13.98;100.00
71772;BME280;59606;52.138;5.424;2022-12-31T12:37:33;100587.50;;;14.00;100.00
71772;BME280;59606;52.138;5.424;2022-12-31T12:40:02;100588.34;;;14.01;100.00
71772;BME280;59606;52.138;5.424;2022-12-31T12:42:29;100597.91;;;14.02;100.00
71772;BME280;59606;52.138;5.424;2022-12-31T12:45:41;100575.38;;;13.99;100.00
71772;BME280;59606;52.138;5.424;2022-12-31T12:48:42;100581.44;;;14.00;100.00
71772;BME280;59606;52.138;5.424;2022-12-31T12:54:00;100596.09;;;14.02;100.00
71772;BME280;59606;52.138;5.424;2022-12-31T13:02:10;100609.91;;;14.04;100.00
71772;BME280;59606;52.138;5.424;2022-12-31T13:08:29;100616.72;;;14.07;100.00
71772;BME280;59606;52.138;5.424;2022-12-31T13:11:06;100613.13;;;14.08;100.00
71772;BME280;59606;52.138;5.424;2022-12-31T13:14:06;100635.78;;;14.09;100.00
71772;BME280;59606;52.138;5.424;2022-12-31T13:22:13;100629.19;;;14.03;100.00
71772;BME280;59606;52.138;5.424;2022-12-31T13:27:39;100622.75;;;13.96;100.00
71772;BME280;59606;52.138;5.424;2022-12-31T13:30:29;100641.06;;;13.96;100.00
71772;BME280;59606;52.138;5.424;2022-12-31T13:33:14;100630.69;;;13.95;100.00
71772;BME280;59606;52.138;5.424;2022-12-31T13:35:46;100635.22;;;13.93;100.00
71772;BME280;59606;52.138;5.424;2022-12-31T13:38:18;100629.16;;;13.92;100.00
71772;BME280;59606;52.138;5.424;2022-12-31T13:46:15;100633.78;;;13.88;100.00
71772;BME280;59606;52.138;5.424;2022-12-31T13:48:49;100640.91;;;13.86;100.00
71772;BME280;59606;52.138;5.424;2022-12-31T13:51:25;100658.41;;;13.86;100.00
71772;BME280;59606;52.138;5.424;2022-12-31T13:54:00;100645.31;;;13.86;100.00
71772;BME280;59606;52.138;5.424;2022-12-31T13:56:34;100642.78;;;13.84;100.00
71772;BME280;59606;52.138;5.424;2022-12-31T13:59:21;100634.22;;;13.82;100.00
71772;BME280;59606;52.138;5.424;2022-12-31T14:01:56;100638.63;;;13.82;100.00
71772;BME280;59606;52.138;5.424;2022-12-31T14:04:32;100634.91;;;13.84;100.00
71772;BME280;59606;52.138;5.424;2022-12-31T14:07:21;100634.91;;;13.84;100.00
71772;BME280;59606;52.138;5.424;2022-12-31T14:09:54;100637.53;;;13.84;100.00
71772;BME280;59606;52.138;5.424;2022-12-31T14:12:39;100619.13;;;13.86;100.00
71772;BME280;59606;52.138;5.424;2022-12-31T14:15:20;100616.50;;;13.86;100.00
71772;BME280;59606;52.138;5.424;2022-12-31T14:18:02;100618.16;;;13.87;100.00
71772;BME280;59606;52.138;5.424;2022-12-31T14:25:59;100645.31;;;13.86;100.00
71772;BME280;59606;52.138;5.424;2022-12-31T14:28:30;100643.31;;;13.89;100.00
71772;BME280;59606;52.138;5.424;2022-12-31T14:31:13;100662.59;;;13.88;100.00
71772;BME280;59606;52.138;5.424;2022-12-31T14:34:00;100673.06;;;13.88;100.00
71772;BME280;59606;52.138;5.424;2022-12-31T14:42:49;100666.72;;;13.67;100.00
71772;BME280;59606;52.138;5.424;2022-12-31T14:50:47;100676.47;;;13.65;100.00
71772;BME280;59606;52.138;5.424;2022-12-31T14:53:21;100673.72;;;13.66;100.00
71772;BME280;59606;52.138;5.424;2022-12-31T14:56:00;100678.84;;;13.68;100.00
71772;BME280;59606;52.138;5.424;2022-12-31T14:58:34;100684.06;;;13.68;100.00
71772;BME280;59606;52.138;5.424;2022-12-31T15:01:06;100697.16;;;13.68;100.00
71772;BME280;59606;52.138;5.424;2022-12-31T15:03:44;100682.41;;;13.67;100.00
71772;BME280;59606;52.138;5.424;2022-12-31T15:17:45;100691.53;;;13.61;100.00
71772;BME280;59606;52.138;5.424;2022-12-31T15:20:48;100675.94;;;13.60;100.00
71772;BME280;59606;52.138;5.424;2022-12-31T15:23:35;100674.16;;;13.60;100.00
71772;BME280;59606;52.138;5.424;2022-12-31T15:26:04;100678.44;;;13.61;99.81
71772;BME280;59606;52.138;5.424;2022-12-31T15:28:36;100673.13;;;13.63;99.68
71772;BME280;59606;52.138;5.424;2022-12-31T15:31:16;100677.50;;;13.62;99.93
71772;BME280;59606;52.138;5.424;2022-12-31T15:34:06;100667.75;;;13.64;98.92
71772;BME280;59606;52.138;5.424;2022-12-31T15:36:37;100651.00;;;13.67;97.75
71772;BME280;59606;52.138;5.424;2022-12-31T15:39:05;100661.16;;;13.72;97.06
71772;BME280;59606;52.138;5.424;2022-12-31T15:41:42;100657.59;;;13.73;96.45
71772;BME280;59606;52.138;5.424;2022-12-31T15:44:50;100641.66;;;13.76;96.08
71772;BME280;59606;52.138;5.424;2022-12-31T15:47:29;100656.34;;;13.78;95.43
71772;BME280;59606;52.138;5.424;2022-12-31T15:50:02;100656.81;;;13.83;94.15
71772;BME280;59606;52.138;5.424;2022-12-31T15:52:38;100661.09;;;13.84;94.26
71772;BME280;59606;52.138;5.424;2022-12-31T15:55:06;100658.41;;;13.86;93.31
71772;BME280;59606;52.138;5.424;2022-12-31T15:57:38;100649.59;;;13.87;92.72
71772;BME280;59606;52.138;5.424;2022-12-31T16:00:14;100658.19;;;13.89;93.01
71772;BME280;59606;52.138;5.424;2022-12-31T16:02:42;100660.69;;;13.90;91.69
71772;BME280;59606;52.138;5.424;2022-12-31T16:05:21;100660.47;;;13.94;91.79
71772;BME280;59606;52.138;5.424;2022-12-31T16:07:52;100653.94;;;13.99;91.57
71772;BME280;59606;52.138;5.424;2022-12-31T16:10:27;100657.41;;;14.00;90.75
71772;BME280;59606;52.138;5.424;2022-12-31T16:12:56;100652.03;;;14.01;90.29
71772;BME280;59606;52.138;5.424;2022-12-31T16:15:26;100670.28;;;14.03;89.92
71772;BME280;59606;52.138;5.424;2022-12-31T16:18:04;100662.28;;;14.04;89.64
71772;BME280;59606;52.138;5.424;2022-12-31T16:20:32;100665.66;;;14.06;89.20
71772;BME280;59606;52.138;5.424;2022-12-31T16:23:01;100656.13;;;14.05;89.79
71772;BME280;59606;52.138;5.424;2022-12-31T16:25:30;100637.88;;;14.04;88.76
71772;BME280;59606;52.138;5.424;2022-12-31T16:28:01;100632.56;;;14.05;88.09
71772;BME280;59606;52.138;5.424;2022-12-31T16:30:30;100636.84;;;14.06;88.01
71772;BME280;59606;52.138;5.424;2022-12-31T16:33:11;100640.28;;;14.07;88.47
71772;BME280;59606;52.138;5.424;2022-12-31T16:35:39;100635.19;;;14.05;87.88
71772;BME280;59606;52.138;5.424;2022-12-31T16:40:33;100648.66;;;14.12;87.07
71772;BME280;59606;52.138;5.424;2022-12-31T16:43:00;100631.38;;;14.09;87.11
71772;BME280;59606;52.138;5.424;2022-12-31T16:45:35;100636.84;;;14.06;86.59
71772;BME280;59606;52.138;5.424;2022-12-31T16:48:08;100631.25;;;14.11;86.07
71772;BME280;59606;52.138;5.424;2022-12-31T16:50:43;100631.38;;;14.09;85.97
71772;BME280;59606;52.138;5.424;2022-12-31T16:53:12;100635.66;;;14.10;86.74
71772;BME280;59606;52.138;5.424;2022-12-31T16:55:43;100629.94;;;14.05;86.16
71772;BME280;59606;52.138;5.424;2022-12-31T16:58:23;100639.34;;;14.08;86.17
71772;BME280;59606;52.138;5.424;2022-12-31T17:00:51;100642.91;;;14.07;85.35